Time;durP1;ratioP1;P1;durP2;ratioP2;P2;SDS_P1;SDS_P2;PMS_P1;PMS_P2;Temp;Humidity;BMP_temperature;BMP_pressure;BME280_temperature;BME280_humidity;BME280_pressure;Samples;Min_cycle;Max_cycle;Signal;HPM_P1;HPM_P2
2021/12/31 00:00:49;;;;;;;1.50;1.30;;;;;;;11.50;96.74;98852.00;4090017;28;20054;-72
2021/12/31 00:02:50;;;;;;;2.60;1.63;;;;;;;11.49;96.61;98853.97;4087657;28;20043;-72
2021/12/31 00:04:50;;;;;;;5.75;1.73;;;;;;;11.49;96.38;98842.09;4088361;28;20134;-72
2021/12/31 00:06:51;;;;;;;3.20;1.30;;;;;;;11.48;96.28;98851.59;4088242;28;20059;-72
2021/12/31 00:08:51;;;;;;;1.75;1.13;;;;;;;11.53;96.44;98851.28;4088578;28;20058;-71
2021/12/31 00:10:56;;;;;;;1.38;1.10;;;;;;;11.47;96.29;98842.47;4097331;28;20621;-72
2021/12/31 00:12:57;;;;;;;4.25;1.58;;;;;;;11.50;96.58;98857.53;4088910;28;20201;-72
2021/12/31 00:14:58;;;;;;;4.53;1.35;;;;;;;11.50;96.50;98846.47;4089172;28;20055;-72
2021/12/31 00:16:58;;;;;;;2.38;1.40;;;;;;;11.42;96.72;98842.00;4086362;28;20051;-72
2021/12/31 00:18:59;;;;;;;2.13;1.42;;;;;;;11.39;97.67;98839.97;4089436;28;20047;-72
2021/12/31 00:21:00;;;;;;;2.05;1.30;;;;;;;11.39;97.42;98846.31;4088105;28;20051;-72
2021/12/31 00:23:06;;;;;;;2.15;1.42;;;;;;;11.39;97.58;98840.78;4094594;28;20055;-72
2021/12/31 00:25:07;;;;;;;2.75;1.30;;;;;;;11.41;96.70;98846.72;4087738;28;20046;-72
2021/12/31 00:27:07;;;;;;;1.58;1.25;;;;;;;11.45;96.90;98844.03;4093202;28;20051;-72
2021/12/31 00:29:08;;;;;;;2.80;1.50;;;;;;;11.42;97.44;98842.00;4088176;28;20051;-72
2021/12/31 00:31:08;;;;;;;2.03;1.00;;;;;;;11.41;97.43;98840.41;4087837;28;20093;-72
2021/12/31 00:33:09;;;;;;;2.47;1.42;;;;;;;11.42;97.31;98844.75;4087970;28;20406;-72
2021/12/31 00:35:10;;;;;;;3.92;1.33;;;;;;;11.45;97.00;98852.34;4087620;28;20730;-72
2021/12/31 00:37:10;;;;;;;3.35;1.25;;;;;;;11.50;96.39;98843.69;4092012;28;20063;-73
2021/12/31 00:39:14;;;;;;;1.40;1.13;;;;;;;11.46;96.57;98843.66;4087465;28;20159;-72
2021/12/31 00:41:15;;;;;;;1.23;1.02;;;;;;;11.45;96.74;98844.81;4088974;28;20054;-72
2021/12/31 00:43:15;;;;;;;2.67;1.20;;;;;;;11.42;96.88;98845.59;4088313;28;20430;-72
2021/12/31 00:45:18;;;;;;;2.03;1.50;;;;;;;11.40;97.15;98855.44;4086916;28;20051;-72
2021/12/31 00:47:18;;;;;;;;;;;;;;;11.42;97.18;98866.94;4093764;28;20374;-72
2021/12/31 00:49:19;;;;;;;2.65;1.20;;;;;;;11.44;96.89;98862.63;4087161;28;20281;-72
2021/12/31 00:51:19;;;;;;;3.10;1.45;;;;;;;11.45;96.77;98872.53;4088115;28;20483;-72
2021/12/31 00:53:20;;;;;;;1.25;1.05;;;;;;;11.45;96.20;98855.13;4088413;28;20495;-72
2021/12/31 00:55:20;;;;;;;1.70;1.20;;;;;;;11.49;96.20;98855.94;4088072;28;20455;-73
2021/12/31 00:57:20;;;;;;;1.45;1.20;;;;;;;11.46;96.47;98863.03;4086490;28;20047;-72
2021/12/31 00:59:21;;;;;;;3.00;1.10;;;;;;;11.46;96.59;98870.56;4087967;28;20044;-72
2021/12/31 01:01:23;;;;;;;1.73;1.20;;;;;;;11.42;97.04;98875.25;4088452;28;20047;-72
2021/12/31 01:03:23;;;;;;;1.98;1.20;;;;;;;11.44;96.68;98884.78;4089625;28;20502;-72
2021/12/31 01:05:24;;;;;;;1.60;1.30;;;;;;;11.42;97.15;98878.00;4087346;28;20055;-72
2021/12/31 01:07:25;;;;;;;2.30;1.10;;;;;;;11.41;97.13;98877.22;4092195;28;20128;-72
2021/12/31 01:09:26;;;;;;;3.03;1.23;;;;;;;11.49;96.40;98890.00;4087663;28;20152;-72
2021/12/31 01:11:26;;;;;;;2.90;1.25;;;;;;;11.50;96.30;98876.94;4090746;28;20047;-72
2021/12/31 01:13:35;;;;;;;2.40;1.48;;;;;;;11.48;96.29;98873.75;4087830;28;20062;-72
2021/12/31 01:15:40;;;;;;;1.63;1.25;;;;;;;11.44;96.36;98872.91;4092195;28;20082;-72
2021/12/31 01:18:13;;;;;;;1.75;1.38;;;;;;;11.39;96.42;98874.03;4088003;28;20054;-72
2021/12/31 01:20:07;;;;;;;1.58;1.30;;;;;;;11.40;96.79;98881.16;4086791;28;20491;-72
2021/12/31 01:22:08;;;;;;;1.48;1.10;;;;;;;11.47;96.11;98888.78;4090100;28;20123;-72
2021/12/31 01:24:11;;;;;;;3.35;1.15;;;;;;;11.54;95.34;98875.81;4095906;28;20110;-72
2021/12/31 01:26:12;;;;;;;1.98;1.20;;;;;;;11.56;95.17;98882.97;4091991;28;20130;-72
2021/12/31 01:28:13;;;;;;;2.50;1.08;;;;;;;11.49;95.51;98875.34;4094302;28;20486;-72
2021/12/31 01:30:14;;;;;;;4.18;1.23;;;;;;;11.48;95.67;98884.84;4088906;28;20043;-72
2021/12/31 01:32:14;;;;;;;1.88;1.02;;;;;;;11.45;96.27;98880.06;4089359;28;20089;-72
2021/12/31 01:34:15;;;;;;;3.05;1.23;;;;;;;11.45;95.49;98871.75;4089719;28;20031;-72
2021/12/31 01:36:15;;;;;;;2.63;1.02;;;;;;;11.45;95.96;98880.84;4091473;28;20061;-72
2021/12/31 01:38:16;;;;;;;1.13;1.02;;;;;;;11.50;94.71;98886.09;4088767;28;20032;-72
2021/12/31 01:40:17;;;;;;;1.27;1.05;;;;;;;11.50;95.09;98888.03;4090260;28;20092;-73
2021/12/31 01:42:22;;;;;;;1.10;1.00;;;;;;;11.48;94.93;98884.84;4090684;28;20043;-72
2021/12/31 01:44:23;;;;;;;2.25;1.25;;;;;;;11.45;94.94;98880.84;4090000;28;20043;-72
2021/12/31 01:46:23;;;;;;;2.53;1.08;;;;;;;11.44;95.28;98881.22;4089137;28;20046;-72
2021/12/31 01:48:37;;;;;;;1.17;1.00;;;;;;;11.46;94.87;98876.91;4090154;28;20040;-72
2021/12/31 01:50:37;;;;;;;1.80;1.08;;;;;;;11.45;94.97;98878.06;4093743;28;20161;-72
2021/12/31 01:52:40;;;;;;;1.50;1.00;;;;;;;11.45;94.92;98882.81;4089877;28;20129;-72
2021/12/31 01:54:41;;;;;;;2.17;1.30;;;;;;;11.43;95.00;98876.88;4093536;28;20047;-72
2021/12/31 01:56:42;;;;;;;0.95;0.93;;;;;;;11.47;94.25;98877.69;4092779;28;20491;-72
2021/12/31 01:58:43;;;;;;;1.15;1.00;;;;;;;11.48;94.13;98876.53;4093482;28;20409;-72
2021/12/31 02:00:43;;;;;;;1.30;1.08;;;;;;;11.43;95.34;98874.88;4090091;28;20079;-72
2021/12/31 02:02:45;;;;;;;1.25;1.00;;;;;;;11.45;94.25;98871.75;4090067;28;20105;-72
2021/12/31 02:04:46;;;;;;;1.73;1.15;;;;;;;11.45;94.26;98872.53;4089801;28;20430;-73
2021/12/31 02:06:46;;;;;;;2.38;1.00;;;;;;;11.45;94.61;98878.06;4088668;28;20051;-72
2021/12/31 02:08:46;;;;;;;1.42;1.33;;;;;;;11.47;94.19;98875.72;4089895;28;20399;-72
2021/12/31 02:10:51;;;;;;;1.23;0.90;;;;;;;11.48;93.98;98887.59;4094251;28;20104;-72
2021/12/31 02:12:53;;;;;;;1.35;1.00;;;;;;;11.44;94.35;98886.78;4089162;28;20867;-72
2021/12/31 02:14:53;;;;;;;1.00;0.90;;;;;;;11.45;94.49;98886.38;4092129;28;20089;-72
2021/12/31 02:16:54;;;;;;;1.95;0.90;;;;;;;11.45;94.21;98883.63;4089300;28;20345;-72
2021/12/31 02:18:54;;;;;;;1.42;1.00;;;;;;;11.44;94.52;98895.09;4089040;28;20500;-72
2021/12/31 02:20:54;;;;;;;1.00;0.90;;;;;;;11.41;94.86;98884.72;4089775;28;20043;-72
2021/12/31 02:23:05;;;;;;;1.35;1.10;;;;;;;11.46;94.25;98887.19;4093418;28;20047;-72
2021/12/31 02:25:07;;;;;;;1.65;1.23;;;;;;;11.50;94.05;98888.03;4090162;28;20101;-72
2021/12/31 02:27:07;;;;;;;1.85;1.10;;;;;;;11.48;94.06;98888.41;4088337;28;20446;-73
2021/12/31 02:29:08;;;;;;;1.73;1.10;;;;;;;11.49;94.03;98889.19;4089226;28;20269;-72
2021/12/31 02:31:08;;;;;;;1.98;0.88;;;;;;;11.45;94.48;98897.47;4089809;28;20129;-72
2021/12/31 02:33:09;;;;;;;1.15;0.85;;;;;;;11.44;94.91;98892.31;4088708;28;20070;-72
2021/12/31 02:35:10;;;;;;;3.30;1.20;;;;;;;11.51;93.70;98895.97;4094885;28;20199;-72
2021/12/31 02:37:11;;;;;;;0.85;0.75;;;;;;;11.51;94.00;98903.50;4088990;28;20066;-72
2021/12/31 02:39:11;;;;;;;1.27;0.90;;;;;;;11.46;94.20;98903.81;4089374;28;20055;-72
2021/12/31 02:41:11;;;;;;;1.33;1.08;;;;;;;11.38;94.81;98894.59;4087672;28;20301;-72
2021/12/31 02:43:12;;;;;;;1.52;0.80;;;;;;;11.38;94.79;98899.34;4095147;28;20044;-72
2021/12/31 02:45:13;;;;;;;2.03;0.88;;;;;;;11.43;94.76;98904.56;4089647;28;20456;-72
2021/12/31 02:47:14;;;;;;;1.02;0.85;;;;;;;11.45;94.89;98907.75;4088708;28;20043;-72
2021/12/31 02:49:18;;;;;;;1.52;0.80;;;;;;;11.43;95.09;98912.88;4089895;28;20499;-72
2021/12/31 02:51:19;;;;;;;1.88;0.82;;;;;;;11.40;95.85;98905.28;4089175;28;20086;-72
2021/12/31 02:53:30;;;;;;;0.75;0.70;;;;;;;11.34;97.33;98902.06;4089026;28;20426;-72
2021/12/31 02:55:32;;;;;;;1.70;0.73;;;;;;;11.33;96.79;98891.34;4088699;28;20411;-72
2021/12/31 02:57:32;;;;;;;1.80;1.25;;;;;;;11.27;97.73;98890.06;4088638;28;20479;-72
2021/12/31 02:59:35;;;;;;;1.73;0.90;;;;;;;11.24;97.65;98889.63;4089088;28;20048;-72
2021/12/31 03:01:35;;;;;;;1.90;0.80;;;;;;;11.25;97.78;98891.25;4089753;28;20043;-72
2021/12/31 03:03:37;;;;;;;0.80;0.60;;;;;;;11.30;96.89;98886.56;4090176;28;20051;-72
2021/12/31 03:05:38;;;;;;;1.15;0.80;;;;;;;11.22;97.25;98882.88;4092901;28;20058;-72
2021/12/31 03:07:42;;;;;;;0.65;0.65;;;;;;;11.23;96.39;98888.03;4090022;28;20047;-72
2021/12/31 03:09:46;;;;;;;1.00;0.75;;;;;;;11.27;95.37;98895.63;4090996;28;20058;-72
2021/12/31 03:11:47;;;;;;;1.08;0.88;;;;;;;11.28;94.75;98898.00;4089310;28;20050;-72
2021/12/31 03:13:54;;;;;;;0.60;0.60;;;;;;;11.23;95.27;98898.31;4088059;28;20355;-72
2021/12/31 03:15:57;;;;;;;0.80;0.70;;;;;;;11.25;95.34;98907.88;4088134;28;20133;-72
2021/12/31 03:18:02;;;;;;;0.85;0.60;;;;;;;11.19;95.83;98911.31;4089521;28;20053;-72
2021/12/31 03:20:11;;;;;;;0.63;0.63;;;;;;;11.18;95.10;98916.06;4088645;28;20043;-72
2021/12/31 03:22:12;;;;;;;0.70;0.70;;;;;;;11.12;95.95;98911.22;4091454;28;20047;-72
2021/12/31 03:24:13;;;;;;;0.73;0.70;;;;;;;11.19;94.19;98894.69;4088217;28;20097;-72
2021/12/31 03:26:13;;;;;;;1.13;1.08;;;;;;;11.20;94.96;98899.06;4092966;28;20031;-72
2021/12/31 03:28:13;;;;;;;1.60;0.80;;;;;;;11.13;95.06;98898.94;4093565;28;20398;-72
2021/12/31 03:30:16;;;;;;;2.83;0.90;;;;;;;11.10;94.64;98894.97;4092547;28;20046;-72
2021/12/31 03:32:16;;;;;;;0.95;0.73;;;;;;;11.10;94.27;98896.94;4089134;28;20117;-72
2021/12/31 03:34:17;;;;;;;1.20;0.73;;;;;;;11.08;94.11;98888.19;4088496;28;20035;-72
2021/12/31 03:36:17;;;;;;;1.10;0.90;;;;;;;11.05;93.93;98886.16;4088369;28;20101;-72
2021/12/31 03:38:18;;;;;;;1.08;0.95;;;;;;;11.09;93.37;98893.38;4088562;28;20039;-72
2021/12/31 03:40:18;;;;;;;3.25;1.05;;;;;;;11.09;92.93;98887.00;4091745;28;20033;-72
2021/12/31 03:42:18;;;;;;;0.80;0.80;;;;;;;11.09;92.56;98887.84;4088111;28;20036;-72
2021/12/31 03:44:19;;;;;;;0.93;0.80;;;;;;;11.10;92.66;98899.72;4088541;28;20561;-73
2021/12/31 03:46:19;;;;;;;1.13;0.82;;;;;;;11.15;91.39;98894.63;4089717;28;20035;-72
2021/12/31 03:48:20;;;;;;;1.05;0.70;;;;;;;11.12;91.10;98889.06;4087277;28;20039;-72
2021/12/31 03:50:21;;;;;;;1.02;0.75;;;;;;;11.13;90.90;98883.13;4092553;28;20165;-72
2021/12/31 03:52:21;;;;;;;0.80;0.80;;;;;;;11.11;90.39;98888.25;4088213;28;20067;-72
2021/12/31 03:54:22;;;;;;;1.05;0.90;;;;;;;11.12;90.13;98886.28;4087431;28;20487;-72
2021/12/31 03:56:24;;;;;;;2.88;0.90;;;;;;;11.10;90.92;98878.34;4089437;28;20383;-72
2021/12/31 03:58:24;;;;;;;0.93;0.82;;;;;;;11.10;89.45;98881.13;4087457;28;20051;-72
2021/12/31 04:00:28;;;;;;;2.97;1.33;;;;;;;11.06;90.78;98883.03;4088597;28;20104;-72
2021/12/31 04:02:29;;;;;;;0.80;0.80;;;;;;;11.03;89.94;98877.44;4087550;28;20039;-72
2021/12/31 04:04:30;;;;;;;0.77;0.77;;;;;;;11.03;90.72;98894.84;4087786;28;20399;-72
2021/12/31 04:06:30;;;;;;;1.23;0.95;;;;;;;11.01;91.46;98885.31;4089187;28;20035;-72
2021/12/31 04:08:31;;;;;;;1.60;0.70;;;;;;;11.02;91.38;98882.19;4087078;28;20057;-72
2021/12/31 04:10:31;;;;;;;0.65;0.65;;;;;;;11.02;91.65;98898.00;4090252;28;20047;-72
2021/12/31 04:12:32;;;;;;;1.25;0.70;;;;;;;11.00;91.96;98892.81;4088734;28;20051;-72
2021/12/31 04:14:32;;;;;;;1.23;0.77;;;;;;;11.02;91.12;98895.22;4088186;28;20537;-72
2021/12/31 04:16:32;;;;;;;0.80;0.70;;;;;;;10.99;91.32;98891.19;4087228;28;20043;-72
2021/12/31 04:18:33;;;;;;;0.70;0.70;;;;;;;11.05;90.76;98900.00;4087361;28;20762;-72
2021/12/31 04:20:37;;;;;;;0.80;0.80;;;;;;;11.02;91.71;98901.56;4089140;28;20708;-72
2021/12/31 04:22:45;;;;;;;2.28;0.88;;;;;;;10.97;91.00;98890.78;4088377;28;20043;-72
2021/12/31 04:26:45;;;;;;;0.90;0.70;;;;;;;10.94;91.78;98894.31;4088807;28;20471;-72
2021/12/31 04:28:46;;;;;;;2.05;0.90;;;;;;;10.98;89.95;98901.47;4088903;28;20047;-72
2021/12/31 04:30:46;;;;;;;2.97;1.40;;;;;;;11.00;90.82;98886.47;4087451;28;20050;-72
2021/12/31 04:32:47;;;;;;;1.00;0.90;;;;;;;11.00;91.17;98890.03;4088568;28;20410;-72
2021/12/31 04:34:48;;;;;;;1.13;0.80;;;;;;;11.01;90.15;98893.63;4087367;28;20050;-72
2021/12/31 04:36:48;;;;;;;1.27;0.93;;;;;;;10.98;90.64;98895.16;4086639;28;20043;-72
2021/12/31 04:38:48;;;;;;;1.38;0.80;;;;;;;11.00;90.95;98895.56;4087704;28;20134;-72
2021/12/31 04:40:49;;;;;;;1.33;1.00;;;;;;;11.05;90.25;98891.69;4088082;28;20448;-72
2021/12/31 04:42:50;;;;;;;1.77;1.10;;;;;;;11.10;89.82;98892.19;4087567;28;20047;-72
2021/12/31 04:44:50;;;;;;;1.73;1.30;;;;;;;11.12;89.02;98894.59;4087959;28;20044;-72
2021/12/31 04:46:51;;;;;;;1.63;1.10;;;;;;;11.10;89.90;98892.19;4087637;28;20450;-72
2021/12/31 04:48:51;;;;;;;3.25;1.40;;;;;;;11.08;90.68;98897.28;4087259;28;20059;-72
2021/12/31 04:50:51;;;;;;;1.20;1.10;;;;;;;11.10;89.79;98896.94;4087696;28;20207;-72
2021/12/31 04:52:52;;;;;;;1.38;1.13;;;;;;;11.06;90.74;98885.78;4087652;28;20326;-72
2021/12/31 04:54:52;;;;;;;1.10;1.00;;;;;;;11.09;90.02;98885.06;4087170;28;20055;-72
2021/12/31 04:56:54;;;;;;;2.08;1.10;;;;;;;11.09;89.78;98887.84;4087352;28;20121;-72
2021/12/31 04:58:54;;;;;;;1.52;1.00;;;;;;;11.06;89.98;98880.25;4087490;28;20044;-72
2021/12/31 05:00:55;;;;;;;1.52;1.05;;;;;;;11.12;89.22;98878.78;4087565;28;20048;-72
2021/12/31 05:02:55;;;;;;;1.35;1.17;;;;;;;11.10;89.62;98877.56;4087829;28;20058;-72
2021/12/31 05:04:55;;;;;;;1.23;0.93;;;;;;;11.10;89.72;98877.56;4089138;28;20047;-72
2021/12/31 05:06:56;;;;;;;1.55;1.17;;;;;;;11.19;88.41;98878.88;4090421;28;20588;-72
2021/12/31 05:08:56;;;;;;;2.05;1.00;;;;;;;11.22;87.93;98878.13;4089953;28;20047;-72
2021/12/31 05:10:56;;;;;;;1.10;1.00;;;;;;;11.21;89.07;98884.84;4101240;28;20078;-72
2021/12/31 05:13:02;;;;;;;1.65;1.27;;;;;;;11.25;88.34;98882.13;4091107;28;20061;-72
2021/12/31 05:15:08;;;;;;;2.92;1.38;;;;;;;11.20;88.47;98880.47;4092787;28;20149;-72
2021/12/31 05:17:08;;;;;;;1.38;1.10;;;;;;;11.24;88.67;98883.28;4088769;28;20055;-72
2021/12/31 05:19:09;;;;;;;1.10;1.00;;;;;;;11.15;89.68;98875.25;4091806;28;20258;-72
2021/12/31 05:21:09;;;;;;;1.15;1.05;;;;;;;11.13;89.74;98872.06;4090777;28;20530;-72
2021/12/31 05:23:10;;;;;;;1.42;1.15;;;;;;;11.10;89.43;98870.03;4094596;28;20083;-72
2021/12/31 05:25:10;;;;;;;1.40;1.10;;;;;;;11.12;89.59;98872.44;4089949;28;20051;-72
2021/12/31 05:27:11;;;;;;;2.00;1.13;;;;;;;11.20;88.58;98869.41;4089996;28;20129;-72
2021/12/31 05:29:11;;;;;;;2.83;1.27;;;;;;;11.16;89.10;98870.50;4089430;28;20050;-72
2021/12/31 05:31:11;;;;;;;1.92;1.20;;;;;;;11.13;88.89;98863.75;4089970;28;20051;-72
2021/12/31 05:33:12;;;;;;;2.55;1.20;;;;;;;11.15;89.09;98868.91;4090647;28;20079;-72
2021/12/31 05:35:13;;;;;;;1.35;1.10;;;;;;;11.14;88.83;98862.56;4090594;28;20090;-72
2021/12/31 05:37:13;;;;;;;4.38;1.60;;;;;;;11.11;89.85;98866.09;4088514;28;20482;-72
2021/12/31 05:39:14;;;;;;;2.45;1.23;;;;;;;11.14;88.50;98862.56;4090743;28;20426;-72
2021/12/31 05:41:15;;;;;;;2.63;1.20;;;;;;;11.16;88.70;98874.06;4092339;28;20502;-72
2021/12/31 05:43:15;;;;;;;2.83;1.58;;;;;;;11.14;89.21;98859.81;4090561;28;20395;-72
2021/12/31 05:45:16;;;;;;;2.00;1.30;;;;;;;11.20;88.74;98863.88;4090713;28;20403;-72
2021/12/31 05:47:16;;;;;;;2.38;1.50;;;;;;;11.15;89.24;98866.94;4089750;28;20058;-72
2021/12/31 05:49:16;;;;;;;2.00;1.30;;;;;;;11.23;88.06;98862.31;4090077;28;20055;-72
2021/12/31 05:51:17;;;;;;;1.52;1.20;;;;;;;11.19;88.45;98873.34;4093015;28;20043;-72
2021/12/31 05:53:17;;;;;;;2.40;1.23;;;;;;;11.19;88.30;98869.78;4092423;28;20043;-72
2021/12/31 05:55:17;;;;;;;2.38;1.20;;;;;;;11.25;86.53;98869.09;4090188;28;20047;-72
2021/12/31 05:57:18;;;;;;;2.22;1.20;;;;;;;11.29;87.23;98876.66;4089343;28;20048;-72
2021/12/31 05:59:18;;;;;;;1.35;1.08;;;;;;;11.27;87.29;98868.72;4090254;28;20130;-72
2021/12/31 06:01:19;;;;;;;1.60;1.38;;;;;;;11.25;88.05;98879.34;4090133;28;20039;-72
2021/12/31 06:03:19;;;;;;;2.35;1.20;;;;;;;11.21;87.38;98868.22;4091887;28;20518;-72
2021/12/31 06:05:20;;;;;;;1.70;1.15;;;;;;;11.20;87.76;98865.84;4095996;28;20181;-72
2021/12/31 06:07:20;;;;;;;3.75;1.30;;;;;;;11.20;87.93;98874.94;4091051;28;20162;-72
2021/12/31 06:09:20;;;;;;;1.92;1.30;;;;;;;11.21;87.53;98872.97;4091082;28;20069;-72
2021/12/31 06:11:21;;;;;;;1.27;1.17;;;;;;;11.15;87.65;98866.13;4092257;28;20043;-72
2021/12/31 06:13:21;;;;;;;3.72;1.58;;;;;;;11.17;87.10;98863.78;4091237;28;20054;-72
2021/12/31 06:15:22;;;;;;;2.35;1.40;;;;;;;11.18;87.11;98857.09;4090677;28;20055;-72
2021/12/31 06:17:25;;;;;;;2.60;1.48;;;;;;;11.17;87.27;98863.78;4092436;28;20054;-72
2021/12/31 06:19:25;;;;;;;2.60;1.20;;;;;;;11.17;87.02;98874.88;4090063;28;20050;-72
2021/12/31 06:21:26;;;;;;;2.33;1.40;;;;;;;11.24;86.41;98870.25;4092691;28;20043;-72
2021/12/31 06:23:26;;;;;;;2.22;1.20;;;;;;;11.24;86.86;98877.75;4093641;28;20133;-72
2021/12/31 06:25:28;;;;;;;2.22;1.30;;;;;;;11.18;87.66;98873.72;4090157;28;20044;-72
2021/12/31 06:27:28;;;;;;;2.10;1.48;;;;;;;11.14;87.29;98875.63;4091274;28;20043;-72
2021/12/31 06:29:28;;;;;;;4.07;1.33;;;;;;;11.12;87.12;98876.00;4093927;28;20483;-72
2021/12/31 06:31:29;;;;;;;2.38;1.33;;;;;;;11.14;87.39;98881.16;4090361;28;20047;-72
2021/12/31 06:33:29;;;;;;;2.33;1.08;;;;;;;11.13;86.90;98885.09;4092168;28;20051;-72
2021/12/31 06:35:29;;;;;;;2.95;1.25;;;;;;;11.15;86.59;98878.00;4092210;28;20491;-72
2021/12/31 06:37:30;;;;;;;2.25;1.20;;;;;;;11.18;86.99;98880.06;4088545;28;20054;-72
2021/12/31 06:39:30;;;;;;;1.10;1.00;;;;;;;11.21;85.92;98875.75;4092565;28;20046;-72
2021/12/31 06:41:31;;;;;;;1.33;1.10;;;;;;;11.21;86.42;98870.19;4091840;28;20043;-72
2021/12/31 06:43:31;;;;;;;2.15;1.63;;;;;;;11.19;86.23;98870.56;4089377;28;20059;-72
2021/12/31 06:45:31;;;;;;;1.38;1.17;;;;;;;11.25;85.95;98873.81;4091591;28;20067;-72
2021/12/31 06:47:32;;;;;;;1.20;1.10;;;;;;;11.27;85.18;98879.00;4090463;28;20047;-72
2021/12/31 06:49:32;;;;;;;1.58;1.10;;;;;;;11.33;84.74;98880.25;4089826;28;20051;-72
2021/12/31 06:51:33;;;;;;;2.38;1.10;;;;;;;11.30;84.92;98883.78;4091052;28;20090;-72
2021/12/31 06:53:33;;;;;;;1.38;1.10;;;;;;;11.34;84.74;98892.97;4090919;28;20089;-72
2021/12/31 06:55:33;;;;;;;2.42;1.60;;;;;;;11.31;85.05;98888.94;4091031;28;20352;-72
2021/12/31 06:57:35;;;;;;;4.07;2.53;;;;;;;11.31;84.63;98886.16;4091813;28;20383;-72
2021/12/31 06:59:35;;;;;;;5.32;3.00;;;;;;;11.37;84.13;98890.22;4092427;28;20039;-72
2021/12/31 07:01:35;;;;;;;4.50;2.45;;;;;;;11.31;84.58;98890.91;4091629;28;20407;-72
2021/12/31 07:03:36;;;;;;;4.88;2.63;;;;;;;11.32;85.01;98898.84;4092365;28;20050;-72
2021/12/31 07:05:39;;;;;;;2.45;1.52;;;;;;;11.25;85.60;98896.78;4091581;28;20051;-72
2021/12/31 07:07:39;;;;;;;2.65;1.55;;;;;;;11.24;85.81;98905.44;4090474;28;20070;-72
2021/12/31 07:09:40;;;;;;;2.03;1.40;;;;;;;11.22;84.87;98902.25;4094425;28;20048;-72
2021/12/31 07:11:40;;;;;;;2.00;1.30;;;;;;;11.18;85.45;98909.72;4089298;28;20036;-72
2021/12/31 07:13:41;;;;;;;1.90;1.25;;;;;;;11.25;85.02;98910.63;4091466;28;20043;-72
2021/12/31 07:15:44;;;;;;;2.38;1.20;;;;;;;11.27;85.11;98910.25;4091754;28;20048;-72
2021/12/31 07:17:44;;;;;;;2.33;1.33;;;;;;;11.22;85.05;98908.59;4089741;28;20039;-72
2021/12/31 07:19:45;;;;;;;2.67;1.77;;;;;;;11.22;84.89;98903.06;4091485;28;20557;-72
2021/12/31 07:21:45;;;;;;;2.72;1.67;;;;;;;11.25;84.74;98913.41;4092045;28;20079;-72
2021/12/31 07:23:45;;;;;;;2.00;1.52;;;;;;;11.27;84.64;98904.72;4093681;28;20154;-72
2021/12/31 07:25:46;;;;;;;1.77;1.42;;;;;;;11.29;84.67;98902.38;4093462;28;20458;-72
2021/12/31 07:27:50;;;;;;;2.10;1.58;;;;;;;11.23;86.44;98903.84;4089172;28;20105;-72
2021/12/31 07:29:50;;;;;;;4.43;1.60;;;;;;;11.17;85.69;98900.63;4091608;28;20092;-72
2021/12/31 07:31:51;;;;;;;1.75;1.40;;;;;;;11.21;85.07;98903.44;4092207;28;20078;-72
2021/12/31 07:33:51;;;;;;;3.75;1.83;;;;;;;11.24;84.78;98895.16;4090239;28;20134;-72
2021/12/31 07:35:53;;;;;;;2.75;1.73;;;;;;;11.24;84.75;98897.13;4089815;28;20065;-72
2021/12/31 07:37:55;;;;;;;3.22;2.10;;;;;;;11.27;84.59;98895.63;4091466;28;20189;-72
2021/12/31 07:40:02;;;;;;;3.70;2.00;;;;;;;11.24;84.51;98891.59;4090997;28;20153;-72
2021/12/31 07:42:02;;;;;;;4.05;1.85;;;;;;;11.31;83.85;98893.69;4089846;28;20088;-72
2021/12/31 07:44:03;;;;;;;2.15;1.40;;;;;;;11.30;83.93;98901.19;4090909;28;20061;-72
2021/12/31 07:46:03;;;;;;;1.85;1.30;;;;;;;11.27;84.61;98888.09;4089160;28;20260;-72
2021/12/31 07:48:04;;;;;;;3.40;1.40;;;;;;;11.27;84.34;98888.09;4090579;28;20027;-72
2021/12/31 07:50:05;;;;;;;2.65;1.80;;;;;;;11.20;84.78;98891.56;4093596;28;20026;-72
2021/12/31 07:52:05;;;;;;;3.60;2.13;;;;;;;11.11;86.16;98893.00;4089796;28;20035;-72
2021/12/31 07:54:06;;;;;;;3.25;1.40;;;;;;;11.05;86.69;98886.97;4089550;28;20220;-72
2021/12/31 07:56:06;;;;;;;1.58;1.20;;;;;;;11.00;86.43;98884.50;4087718;28;20139;-72
2021/12/31 07:58:07;;;;;;;1.33;1.23;;;;;;;10.97;87.23;98890.78;4087308;28;20031;-72
2021/12/31 08:00:08;;;;;;;1.92;1.27;;;;;;;10.94;87.09;98888.78;4088702;28;20035;-72
2021/12/31 08:02:08;;;;;;;2.53;1.40;;;;;;;10.95;86.52;98884.81;4088583;28;20039;-72
2021/12/31 08:04:08;;;;;;;1.52;1.13;;;;;;;11.01;85.60;98886.13;4088698;28;20027;-72
2021/12/31 08:06:09;;;;;;;1.77;1.25;;;;;;;11.02;86.06;98886.91;4088116;28;20039;-72
2021/12/31 08:08:09;;;;;;;2.17;1.20;;;;;;;11.01;86.05;98897.19;4088282;28;20038;-72
2021/12/31 08:10:10;;;;;;;2.90;1.50;;;;;;;11.03;86.35;98889.31;4087775;28;20252;-72
2021/12/31 08:12:10;;;;;;;1.85;1.30;;;;;;;10.97;86.95;98872.19;4087747;28;20118;-72
2021/12/31 08:14:10;;;;;;;1.83;1.48;;;;;;;11.01;86.06;98875.03;4087919;28;20037;-72
2021/12/31 08:16:11;;;;;;;2.17;1.38;;;;;;;11.05;85.58;98870.34;4088586;28;20035;-72
2021/12/31 08:18:11;;;;;;;1.98;1.40;;;;;;;11.09;85.87;98881.47;4086986;28;20085;-72
2021/12/31 08:20:11;;;;;;;2.67;1.90;;;;;;;11.12;85.19;98880.75;4088739;28;20058;-72
2021/12/31 08:22:12;;;;;;;2.42;1.52;;;;;;;11.10;85.94;98874.78;4087969;28;20440;-72
2021/12/31 08:24:12;;;;;;;3.72;1.67;;;;;;;11.20;84.46;98874.94;4087965;28;20054;-72
2021/12/31 08:26:13;;;;;;;2.53;1.33;;;;;;;11.23;84.60;98881.69;4088897;28;20433;-72
2021/12/31 08:28:13;;;;;;;1.85;1.52;;;;;;;11.27;85.29;98871.47;4087167;28;20039;-72
2021/12/31 08:30:14;;;;;;;2.25;2.05;;;;;;;11.28;84.91;98886.13;4087725;28;20041;-72
2021/12/31 08:32:14;;;;;;;1.50;1.23;;;;;;;11.31;83.84;98871.53;4092809;28;20035;-72
2021/12/31 08:34:14;;;;;;;3.25;1.60;;;;;;;11.34;83.87;98871.59;4087496;28;20035;-72
2021/12/31 08:36:15;;;;;;;2.63;1.73;;;;;;;11.33;84.12;98866.41;4088298;28;20491;-72
2021/12/31 08:38:15;;;;;;;3.47;2.17;;;;;;;11.29;84.72;98874.69;4087387;28;20031;-72
2021/12/31 08:40:16;;;;;;;1.95;1.33;;;;;;;11.27;84.76;98876.22;4088143;28;20073;-72
2021/12/31 08:42:17;;;;;;;2.90;1.50;;;;;;;11.30;83.70;98872.69;4086156;28;20039;-72
2021/12/31 08:44:18;;;;;;;2.75;1.40;;;;;;;11.31;84.65;98879.84;4086831;28;20044;-72
2021/12/31 08:46:18;;;;;;;3.75;1.83;;;;;;;11.32;84.05;98862.03;4093231;28;20035;-72
2021/12/31 08:48:18;;;;;;;2.92;1.52;;;;;;;11.32;84.81;98876.69;4089553;28;20502;-72
2021/12/31 08:50:19;;;;;;;1.70;1.40;;;;;;;11.20;86.23;98860.28;4081373;28;20047;-72
2021/12/31 08:52:19;;;;;;;2.72;1.60;;;;;;;11.30;83.55;98869.94;4089999;28;20030;-72
2021/12/31 08:54:20;;;;;;;2.28;1.77;;;;;;;11.34;83.68;98877.13;4089034;28;20038;-72
2021/12/31 08:56:21;;;;;;;6.93;2.67;;;;;;;11.38;82.98;98877.19;4092036;28;20471;-72
2021/12/31 08:58:21;;;;;;;3.63;2.58;;;;;;;11.46;82.19;98896.28;4087565;28;20067;-72
2021/12/31 09:00:22;;;;;;;4.00;1.90;;;;;;;11.46;83.43;98876.09;4091928;28;20044;-72
2021/12/31 09:02:23;;;;;;;4.63;1.95;;;;;;;11.42;84.11;98878.00;4087534;28;20039;-72
2021/12/31 09:04:23;;;;;;;2.65;1.80;;;;;;;11.39;83.53;98867.69;4088476;28;20054;-72
2021/12/31 09:06:23;;;;;;;3.50;2.15;;;;;;;11.38;83.69;98875.19;4087808;28;20040;-72
2021/12/31 09:08:24;;;;;;;3.47;1.63;;;;;;;11.36;82.83;98871.22;4087404;28;20618;-72
2021/12/31 09:10:25;;;;;;;1.75;1.42;;;;;;;11.39;82.81;98857.41;4088904;28;20043;-72
2021/12/31 09:12:26;;;;;;;2.40;1.60;;;;;;;11.36;82.71;98862.91;4087246;28;20533;-72
2021/12/31 09:14:26;;;;;;;2.75;1.73;;;;;;;11.40;82.52;98867.31;4087576;28;20040;-72
2021/12/31 09:16:27;;;;;;;5.55;1.77;;;;;;;11.42;81.18;98867.75;4087847;28;20074;-72
2021/12/31 09:18:27;;;;;;;3.58;1.73;;;;;;;11.40;81.79;98872.84;4087449;28;20455;-72
2021/12/31 09:20:28;;;;;;;3.25;1.60;;;;;;;11.36;82.78;98858.16;4086503;28;20048;-72
2021/12/31 09:22:29;;;;;;;2.40;1.55;;;;;;;11.34;81.95;98866.06;4089685;28;20462;-72
2021/12/31 09:24:31;;;;;;;3.50;2.00;;;;;;;11.29;82.64;98869.13;4088918;28;20284;-72
2021/12/31 09:26:31;;;;;;;3.67;1.50;;;;;;;11.24;83.48;98869.44;4088401;28;20093;-72
2021/12/31 09:28:31;;;;;;;2.50;1.48;;;;;;;11.29;83.39;98873.88;4086542;28;20070;-72
2021/12/31 09:30:32;;;;;;;1.80;1.50;;;;;;;11.20;83.03;98863.06;4092793;28;20047;-72
2021/12/31 09:32:32;;;;;;;2.50;1.63;;;;;;;11.27;84.14;98871.47;4094294;28;20092;-72